sensor_id;sensor_type;location;lat;lon;timestamp;pressure;altitude;pressure_sealevel;temperature;humidity
35910;BME280;22004;49.120;-0.200;2022-09-28T00:01:13;99838.06;;;13.85;100.00
35910;BME280;22004;49.120;-0.200;2022-09-28T00:03:39;99841.09;;;13.92;100.00
35910;BME280;22004;49.120;-0.200;2022-09-28T00:06:07;99842.69;;;13.83;100.00
35910;BME280;22004;49.120;-0.200;2022-09-28T00:08:35;99839.53;;;13.78;100.00
35910;BME280;22004;49.120;-0.200;2022-09-28T00:11:02;99832.00;;;13.72;100.00
35910;BME280;22004;49.120;-0.200;2022-09-28T00:13:28;99832.84;;;13.72;100.00
35910;BME280;22004;49.120;-0.200;2022-09-28T00:16:02;99833.09;;;13.80;100.00
35910;BME280;22004;49.120;-0.200;2022-09-28T00:18:28;99827.66;;;13.71;100.00
35910;BME280;22004;49.120;-0.200;2022-09-28T00:23:25;99827.19;;;13.88;100.00
35910;BME280;22004;49.120;-0.200;2022-09-28T00:25:51;99817.25;;;13.79;100.00
35910;BME280;22004;49.120;-0.200;2022-09-28T00:28:16;99823.16;;;13.82;100.00
35910;BME280;22004;49.120;-0.200;2022-09-28T00:30:41;99829.47;;;13.81;100.00
35910;BME280;22004;49.120;-0.200;2022-09-28T00:33:07;99828.88;;;14.01;100.00
35910;BME280;22004;49.120;-0.200;2022-09-28T00:35:32;99830.19;;;13.84;100.00
35910;BME280;22004;49.120;-0.200;2022-09-28T00:37:58;99834.34;;;13.99;100.00
35910;BME280;22004;49.120;-0.200;2022-09-28T00:40:23;99838.31;;;13.93;100.00
35910;BME280;22004;49.120;-0.200;2022-09-28T00:42:49;99843.91;;;13.79;100.00
35910;BME280;22004;49.120;-0.200;2022-09-28T00:45:14;99838.31;;;13.93;100.00
35910;BME280;22004;49.120;-0.200;2022-09-28T00:47:45;99830.81;;;13.87;100.00
35910;BME280;22004;49.120;-0.200;2022-09-28T00:50:31;99828.59;;;13.81;100.00
35910;BME280;22004;49.120;-0.200;2022-09-28T00:53:18;99836.13;;;13.87;100.00
35910;BME280;22004;49.120;-0.200;2022-09-28T00:55:49;99831.31;;;13.92;100.00
35910;BME280;22004;49.120;-0.200;2022-09-28T00:58:19;99832.25;;;13.80;100.00
35910;BME280;22004;49.120;-0.200;2022-09-28T01:00:46;99832.97;;;13.82;100.00
35910;BME280;22004;49.120;-0.200;2022-09-28T01:03:12;99825.47;;;13.87;100.00
35910;BME280;22004;49.120;-0.200;2022-09-28T01:05:38;99827.63;;;13.93;100.00
35910;BME280;22004;49.120;-0.200;2022-09-28T01:08:05;99822.31;;;13.93;100.00
35910;BME280;22004;49.120;-0.200;2022-09-28T01:10:32;99822.56;;;13.90;100.00
35910;BME280;22004;49.120;-0.200;2022-09-28T01:12:57;99822.44;;;13.80;100.00
35910;BME280;22004;49.120;-0.200;2022-09-28T01:15:25;99820.75;;;14.02;100.00
35910;BME280;22004;49.120;-0.200;2022-09-28T01:18:17;99820.38;;;13.95;100.00
35910;BME280;22004;49.120;-0.200;2022-09-28T01:20:59;99812.50;;;13.82;100.00
35910;BME280;22004;49.120;-0.200;2022-09-28T01:26:48;99809.59;;;13.74;100.00
35910;BME280;22004;49.120;-0.200;2022-09-28T01:29:24;99810.91;;;13.69;100.00
35910;BME280;22004;49.120;-0.200;2022-09-28T01:32:02;99813.59;;;13.69;100.00
35910;BME280;22004;49.120;-0.200;2022-09-28T01:34:38;99812.38;;;13.73;100.00
35910;BME280;22004;49.120;-0.200;2022-09-28T01:37:08;99809.13;;;13.80;100.00
35910;BME280;22004;49.120;-0.200;2022-09-28T01:39:39;99812.50;;;13.71;100.00
35910;BME280;22004;49.120;-0.200;2022-09-28T01:42:11;99804.84;;;13.44;100.00
35910;BME280;22004;49.120;-0.200;2022-09-28T01:44:41;99805.34;;;13.72;100.00
35910;BME280;22004;49.120;-0.200;2022-09-28T01:47:11;99800.13;;;13.70;100.00
35910;BME280;22004;49.120;-0.200;2022-09-28T01:49:42;99797.13;;;13.75;100.00
35910;BME280;22004;49.120;-0.200;2022-09-28T01:52:20;99805.59;;;13.80;100.00
35910;BME280;22004;49.120;-0.200;2022-09-28T01:54:57;99805.22;;;13.62;100.00
35910;BME280;22004;49.120;-0.200;2022-09-28T01:57:46;99807.78;;;13.75;100.00
35910;BME280;22004;49.120;-0.200;2022-09-28T02:00:14;99803.41;;;13.85;100.00
35910;BME280;22004;49.120;-0.200;2022-09-28T02:03:00;99801.69;;;13.84;100.00
35910;BME280;22004;49.120;-0.200;2022-09-28T02:05:32;99797.34;;;13.72;100.00
35910;BME280;22004;49.120;-0.200;2022-09-28T02:08:08;99799.31;;;13.70;100.00
35910;BME280;22004;49.120;-0.200;2022-09-28T02:11:07;99796.63;;;13.81;100.00
35910;BME280;22004;49.120;-0.200;2022-09-28T02:16:17;99801.97;;;13.70;100.00
35910;BME280;22004;49.120;-0.200;2022-09-28T02:18:44;99794.56;;;13.85;100.00
35910;BME280;22004;49.120;-0.200;2022-09-28T02:21:14;99796.50;;;13.71;100.00
35910;BME280;22004;49.120;-0.200;2022-09-28T02:23:50;99791.28;;;13.47;100.00
35910;BME280;22004;49.120;-0.200;2022-09-28T02:26:19;99791.31;;;13.70;100.00
35910;BME280;22004;49.120;-0.200;2022-09-28T02:28:47;99793.25;;;13.79;100.00
35910;BME280;22004;49.120;-0.200;2022-09-28T02:31:12;99800.03;;;13.83;100.00
35910;BME280;22004;49.120;-0.200;2022-09-28T02:33:39;99789.81;;;13.54;100.00
35910;BME280;22004;49.120;-0.200;2022-09-28T02:36:07;99790.81;;;13.76;100.00
35910;BME280;22004;49.120;-0.200;2022-09-28T02:38:35;99783.53;;;13.55;100.00
35910;BME280;22004;49.120;-0.200;2022-09-28T02:44:09;99777.50;;;13.87;100.00
35910;BME280;22004;49.120;-0.200;2022-09-28T02:47:14;99779.56;;;13.72;100.00
35910;BME280;22004;49.120;-0.200;2022-09-28T02:49:48;99773.25;;;13.85;100.00
35910;BME280;22004;49.120;-0.200;2022-09-28T02:53:03;99774.31;;;13.93;100.00
35910;BME280;22004;49.120;-0.200;2022-09-28T02:55:45;99770.94;;;13.91;100.00
35910;BME280;22004;49.120;-0.200;2022-09-28T03:06:31;99770.56;;;13.96;100.00
35910;BME280;22004;49.120;-0.200;2022-09-28T03:09:24;99778.94;;;13.91;100.00
35910;BME280;22004;49.120;-0.200;2022-09-28T03:11:57;99783.44;;;13.79;100.00
35910;BME280;22004;49.120;-0.200;2022-09-28T03:14:23;99786.84;;;13.81;100.00
35910;BME280;22004;49.120;-0.200;2022-09-28T03:16:48;99790.34;;;13.82;100.00
35910;BME280;22004;49.120;-0.200;2022-09-28T03:19:15;99790.94;;;13.86;100.00
35910;BME280;22004;49.120;-0.200;2022-09-28T03:21:42;99789.13;;;13.86;100.00
35910;BME280;22004;49.120;-0.200;2022-09-28T03:24:07;99790.22;;;13.72;100.00
35910;BME280;22004;49.120;-0.200;2022-09-28T03:26:38;99796.38;;;13.84;100.00
35910;BME280;22004;49.120;-0.200;2022-09-28T03:29:03;99798.06;;;13.85;100.00
35910;BME280;22004;49.120;-0.200;2022-09-28T03:31:29;99797.59;;;13.91;100.00
35910;BME280;22004;49.120;-0.200;2022-09-28T03:33:54;99798.69;;;13.89;100.00
35910;BME280;22004;49.120;-0.200;2022-09-28T03:36:20;99796.25;;;13.74;100.00
35910;BME280;22004;49.120;-0.200;2022-09-28T03:38:45;99802.09;;;13.68;100.00
35910;BME280;22004;49.120;-0.200;2022-09-28T03:41:11;99807.25;;;13.58;100.00
35910;BME280;22004;49.120;-0.200;2022-09-28T03:43:36;99803.03;;;13.78;100.00
35910;BME280;22004;49.120;-0.200;2022-09-28T03:46:02;99797.84;;;13.77;100.00
35910;BME280;22004;49.120;-0.200;2022-09-28T03:48:30;99801.94;;;13.58;100.00
35910;BME280;22004;49.120;-0.200;2022-09-28T03:50:57;99803.53;;;13.72;100.00
35910;BME280;22004;49.120;-0.200;2022-09-28T03:53:24;99809.47;;;13.76;100.00
35910;BME280;22004;49.120;-0.200;2022-09-28T03:55:49;99808.00;;;13.60;100.00
35910;BME280;22004;49.120;-0.200;2022-09-28T03:58:18;99815.03;;;13.84;100.00
35910;BME280;22004;49.120;-0.200;2022-09-28T04:00:44;99816.88;;;13.72;100.00
35910;BME280;22004;49.120;-0.200;2022-09-28T04:03:09;99813.47;;;13.70;100.00
35910;BME280;22004;49.120;-0.200;2022-09-28T04:05:34;99816.38;;;13.78;100.00
35910;BME280;22004;49.120;-0.200;2022-09-28T04:08:00;99823.53;;;13.67;100.00
35910;BME280;22004;49.120;-0.200;2022-09-28T04:10:25;99824.38;;;13.56;100.00
35910;BME280;22004;49.120;-0.200;2022-09-28T04:12:57;99812.38;;;13.73;100.00
35910;BME280;22004;49.120;-0.200;2022-09-28T04:15:23;99826.66;;;13.72;100.00
35910;BME280;22004;49.120;-0.200;2022-09-28T04:17:49;99824.13;;;13.70;100.00
35910;BME280;22004;49.120;-0.200;2022-09-28T04:20:14;99818.53;;;13.62;100.00
35910;BME280;22004;49.120;-0.200;2022-09-28T04:22:40;99822.53;;;13.68;100.00
35910;BME280;22004;49.120;-0.200;2022-09-28T04:25:05;99824.03;;;13.83;100.00
35910;BME280;22004;49.120;-0.200;2022-09-28T04:27:31;99829.09;;;13.75;100.00
35910;BME280;22004;49.120;-0.200;2022-09-28T04:30:15;99827.66;;;13.71;100.00
35910;BME280;22004;49.120;-0.200;2022-09-28T04:32:41;99820.75;;;13.68;100.00
35910;BME280;22004;49.120;-0.200;2022-09-28T04:35:08;99825.69;;;13.73;100.00
35910;BME280;22004;49.120;-0.200;2022-09-28T04:37:33;99814.09;;;13.74;100.00
35910;BME280;22004;49.120;-0.200;2022-09-28T04:39:59;99821.09;;;13.63;100.00
35910;BME280;22004;49.120;-0.200;2022-09-28T04:42:24;99822.28;;;13.48;100.00
35910;BME280;22004;49.120;-0.200;2022-09-28T04:44:49;99826.78;;;13.59;100.00
35910;BME280;22004;49.120;-0.200;2022-09-28T04:47:15;99825.09;;;13.69;100.00
35910;BME280;22004;49.120;-0.200;2022-09-28T04:49:40;99827.88;;;13.68;100.00
35910;BME280;22004;49.120;-0.200;2022-09-28T04:52:06;99819.78;;;13.80;100.00
35910;BME280;22004;49.120;-0.200;2022-09-28T04:54:31;99831.28;;;13.70;100.00
35910;BME280;22004;49.120;-0.200;2022-09-28T04:56:57;99826.44;;;13.75;100.00
35910;BME280;22004;49.120;-0.200;2022-09-28T04:59:23;99826.66;;;13.60;100.00
35910;BME280;22004;49.120;-0.200;2022-09-28T05:01:48;99830.66;;;13.66;100.00
35910;BME280;22004;49.120;-0.200;2022-09-28T05:04:14;99830.78;;;13.64;100.00
35910;BME280;22004;49.120;-0.200;2022-09-28T05:06:39;99833.19;;;13.68;100.00
35910;BME280;22004;49.120;-0.200;2022-09-28T05:09:05;99833.09;;;13.80;100.00
35910;BME280;22004;49.120;-0.200;2022-09-28T05:11:30;99838.31;;;13.82;100.00
35910;BME280;22004;49.120;-0.200;2022-09-28T05:13:56;99834.78;;;13.59;100.00
35910;BME280;22004;49.120;-0.200;2022-09-28T05:16:21;99840.69;;;13.62;100.00
35910;BME280;22004;49.120;-0.200;2022-09-28T05:18:46;99842.44;;;13.28;100.00
35910;BME280;22004;49.120;-0.200;2022-09-28T05:21:14;99838.78;;;13.64;100.00
35910;BME280;22004;49.120;-0.200;2022-09-28T05:23:44;99831.53;;;13.67;100.00
35910;BME280;22004;49.120;-0.200;2022-09-28T05:26:09;99833.81;;;13.60;100.00
35910;BME280;22004;49.120;-0.200;2022-09-28T05:28:35;99833.66;;;13.50;100.00
35910;BME280;22004;49.120;-0.200;2022-09-28T05:31:02;99831.16;;;13.60;100.00
35910;BME280;22004;49.120;-0.200;2022-09-28T05:33:28;99835.88;;;13.56;100.00
35910;BME280;22004;49.120;-0.200;2022-09-28T05:35:54;99846.16;;;13.25;100.00
35910;BME280;22004;49.120;-0.200;2022-09-28T05:38:19;99835.00;;;13.44;100.00
35910;BME280;22004;49.120;-0.200;2022-09-28T05:40:45;99835.63;;;13.59;100.00
35910;BME280;22004;49.120;-0.200;2022-09-28T05:43:10;99833.94;;;13.70;100.00
35910;BME280;22004;49.120;-0.200;2022-09-28T05:45:35;99841.06;;;13.69;100.00
35910;BME280;22004;49.120;-0.200;2022-09-28T05:48:01;99842.28;;;13.54;100.00
35910;BME280;22004;49.120;-0.200;2022-09-28T05:50:26;99847.28;;;13.70;100.00
35910;BME280;22004;49.120;-0.200;2022-09-28T05:53:05;99850.47;;;13.39;100.00
35910;BME280;22004;49.120;-0.200;2022-09-28T05:55:33;99840.81;;;13.50;100.00
35910;BME280;22004;49.120;-0.200;2022-09-28T05:58:00;99847.84;;;13.62;100.00
35910;BME280;22004;49.120;-0.200;2022-09-28T06:00:26;99850.16;;;13.55;100.00
35910;BME280;22004;49.120;-0.200;2022-09-28T06:02:59;99847.22;;;13.58;100.00
35910;BME280;22004;49.120;-0.200;2022-09-28T06:05:27;99855.47;;;13.55;100.00
35910;BME280;22004;49.120;-0.200;2022-09-28T06:07:59;99859.84;;;13.45;100.00
35910;BME280;22004;49.120;-0.200;2022-09-28T06:10:26;99859.09;;;13.54;100.00
35910;BME280;22004;49.120;-0.200;2022-09-28T06:12:54;99869.66;;;13.56;100.00
35910;BME280;22004;49.120;-0.200;2022-09-28T06:15:20;99876.47;;;13.71;100.00
35910;BME280;22004;49.120;-0.200;2022-09-28T06:17:46;99866.38;;;13.52;100.00
35910;BME280;22004;49.120;-0.200;2022-09-28T06:20:11;99876.72;;;13.68;100.00
35910;BME280;22004;49.120;-0.200;2022-09-28T06:22:37;99872.84;;;13.72;100.00
35910;BME280;22004;49.120;-0.200;2022-09-28T06:25:03;99868.34;;;13.73;100.00
35910;BME280;22004;49.120;-0.200;2022-09-28T06:27:29;99875.59;;;13.59;100.00
35910;BME280;22004;49.120;-0.200;2022-09-28T06:29:54;99874.63;;;13.49;100.00
35910;BME280;22004;49.120;-0.200;2022-09-28T06:32:20;99877.28;;;13.49;100.00
35910;BME280;22004;49.120;-0.200;2022-09-28T06:34:45;99875.84;;;13.68;100.00
35910;BME280;22004;49.120;-0.200;2022-09-28T06:37:10;99889.00;;;13.46;100.00
35910;BME280;22004;49.120;-0.200;2022-09-28T06:39:36;99888.06;;;13.59;100.00
35910;BME280;22004;49.120;-0.200;2022-09-28T06:42:01;99886.13;;;13.61;100.00
35910;BME280;22004;49.120;-0.200;2022-09-28T06:44:28;99877.09;;;13.75;100.00
35910;BME280;22004;49.120;-0.200;2022-09-28T06:46:53;99892.81;;;13.67;100.00
35910;BME280;22004;49.120;-0.200;2022-09-28T06:49:20;99893.28;;;13.72;100.00
35910;BME280;22004;49.120;-0.200;2022-09-28T06:51:46;99902.34;;;13.58;100.00
35910;BME280;22004;49.120;-0.200;2022-09-28T06:54:11;99903.19;;;13.58;100.00
35910;BME280;22004;49.120;-0.200;2022-09-28T06:56:37;99905.81;;;13.36;100.00
35910;BME280;22004;49.120;-0.200;2022-09-28T06:59:02;99904.44;;;13.66;100.00
35910;BME280;22004;49.120;-0.200;2022-09-28T07:01:28;99910.91;;;13.50;100.00
35910;BME280;22004;49.120;-0.200;2022-09-28T07:03:53;99909.78;;;13.66;100.00
35910;BME280;22004;49.120;-0.200;2022-09-28T07:06:18;99911.22;;;13.70;100.00
35910;BME280;22004;49.120;-0.200;2022-09-28T07:08:48;99902.38;;;13.69;100.00
35910;BME280;22004;49.120;-0.200;2022-09-28T07:11:13;99905.66;;;13.84;100.00
35910;BME280;22004;49.120;-0.200;2022-09-28T07:13:39;99915.81;;;13.56;100.00
35910;BME280;22004;49.120;-0.200;2022-09-28T07:16:04;99913.63;;;13.61;100.00
35910;BME280;22004;49.120;-0.200;2022-09-28T07:18:30;99919.34;;;13.68;100.00
35910;BME280;22004;49.120;-0.200;2022-09-28T07:20:55;99918.03;;;13.74;100.00
35910;BME280;22004;49.120;-0.200;2022-09-28T07:23:21;99922.34;;;13.63;100.00
35910;BME280;22004;49.120;-0.200;2022-09-28T07:25:47;99923.34;;;13.74;100.00
35910;BME280;22004;49.120;-0.200;2022-09-28T07:28:14;99925.50;;;13.57;100.00
35910;BME280;22004;49.120;-0.200;2022-09-28T07:30:40;99920.13;;;13.46;100.00
35910;BME280;22004;49.120;-0.200;2022-09-28T07:33:10;99917.66;;;13.78;100.00
35910;BME280;22004;49.120;-0.200;2022-09-28T07:35:37;99915.16;;;13.88;100.00
35910;BME280;22004;49.120;-0.200;2022-09-28T07:38:06;99912.00;;;14.74;100.00
35910;BME280;22004;49.120;-0.200;2022-09-28T07:40:33;99914.25;;;15.01;100.00
35910;BME280;22004;49.120;-0.200;2022-09-28T07:43:17;99925.56;;;14.59;100.00
35910;BME280;22004;49.120;-0.200;2022-09-28T07:45:45;99934.81;;;14.32;100.00
35910;BME280;22004;49.120;-0.200;2022-09-28T07:48:12;99928.75;;;14.42;100.00
35910;BME280;22004;49.120;-0.200;2022-09-28T07:51:13;99942.31;;;14.50;100.00
35910;BME280;22004;49.120;-0.200;2022-09-28T07:53:32;99940.63;;;14.49;100.00
35910;BME280;22004;49.120;-0.200;2022-09-28T07:56:00;99942.59;;;14.70;100.00
35910;BME280;22004;49.120;-0.200;2022-09-28T07:58:28;99935.25;;;14.94;100.00
35910;BME280;22004;49.120;-0.200;2022-09-28T08:00:57;99931.25;;;15.86;100.00
35910;BME280;22004;49.120;-0.200;2022-09-28T08:03:25;99931.16;;;15.55;100.00
35910;BME280;22004;49.120;-0.200;2022-09-28T08:05:59;99938.88;;;15.05;100.00
35910;BME280;22004;49.120;-0.200;2022-09-28T08:08:25;99930.25;;;15.01;100.00
35910;BME280;22004;49.120;-0.200;2022-09-28T08:10:51;99940.50;;;14.73;100.00
35910;BME280;22004;49.120;-0.200;2022-09-28T08:13:18;99939.66;;;14.39;100.00
35910;BME280;22004;49.120;-0.200;2022-09-28T08:15:43;99946.44;;;14.20;100.00
35910;BME280;22004;49.120;-0.200;2022-09-28T08:18:12;99958.28;;;13.93;100.00
35910;BME280;22004;49.120;-0.200;2022-09-28T08:20:38;99958.78;;;13.87;100.00
35910;BME280;22004;49.120;-0.200;2022-09-28T08:23:21;99958.72;;;13.76;100.00
35910;BME280;22004;49.120;-0.200;2022-09-28T08:25:48;99951.34;;;13.79;100.00
35910;BME280;22004;49.120;-0.200;2022-09-28T08:28:15;99948.56;;;13.81;100.00
35910;BME280;22004;49.120;-0.200;2022-09-28T08:30:42;99952.00;;;13.94;100.00
35910;BME280;22004;49.120;-0.200;2022-09-28T08:33:10;99954.59;;;13.72;100.00
35910;BME280;22004;49.120;-0.200;2022-09-28T08:35:35;99952.00;;;13.94;100.00
35910;BME280;22004;49.120;-0.200;2022-09-28T08:38:00;99960.09;;;13.93;100.00
35910;BME280;22004;49.120;-0.200;2022-09-28T08:40:28;99961.19;;;13.90;100.00
35910;BME280;22004;49.120;-0.200;2022-09-28T08:43:03;99959.41;;;14.02;100.00
35910;BME280;22004;49.120;-0.200;2022-09-28T08:45:31;99957.56;;;14.03;100.00
35910;BME280;22004;49.120;-0.200;2022-09-28T08:48:17;99971.91;;;14.13;100.00
35910;BME280;22004;49.120;-0.200;2022-09-28T08:51:11;99970.38;;;13.75;100.00
35910;BME280;22004;49.120;-0.200;2022-09-28T08:59:14;99980.97;;;13.99;100.00
35910;BME280;22004;49.120;-0.200;2022-09-28T09:01:46;99990.06;;;14.08;100.00
35910;BME280;22004;49.120;-0.200;2022-09-28T09:04:14;99986.38;;;13.75;100.00
35910;BME280;22004;49.120;-0.200;2022-09-28T09:12:21;99976.03;;;14.28;100.00
35910;BME280;22004;49.120;-0.200;2022-09-28T09:14:56;99983.53;;;14.12;100.00
35910;BME280;22004;49.120;-0.200;2022-09-28T09:20:41;99976.66;;;14.43;100.00
35910;BME280;22004;49.120;-0.200;2022-09-28T09:23:28;99977.97;;;14.49;100.00
35910;BME280;22004;49.120;-0.200;2022-09-28T09:26:09;99982.09;;;14.42;100.00
35910;BME280;22004;49.120;-0.200;2022-09-28T09:29:06;99971.78;;;14.26;100.00
35910;BME280;22004;49.120;-0.200;2022-09-28T09:42:58;99983.53;;;14.23;100.00
35910;BME280;22004;49.120;-0.200;2022-09-28T09:48:18;99983.47;;;13.89;100.00
35910;BME280;22004;49.120;-0.200;2022-09-28T09:50:51;99985.19;;;13.90;100.00
35910;BME280;22004;49.120;-0.200;2022-09-28T09:53:35;99985.44;;;13.98;100.00
35910;BME280;22004;49.120;-0.200;2022-09-28T09:56:17;99985.72;;;13.60;100.00
35910;BME280;22004;49.120;-0.200;2022-09-28T09:58:49;99985.88;;;14.28;100.00
35910;BME280;22004;49.120;-0.200;2022-09-28T10:01:20;99988.69;;;14.83;100.00
35910;BME280;22004;49.120;-0.200;2022-09-28T10:03:49;99983.22;;;14.62;100.00
35910;BME280;22004;49.120;-0.200;2022-09-28T10:06:19;99974.78;;;15.12;100.00
35910;BME280;22004;49.120;-0.200;2022-09-28T10:09:05;99981.00;;;15.01;100.00
35910;BME280;22004;49.120;-0.200;2022-09-28T10:11:41;99974.72;;;15.35;100.00
35910;BME280;22004;49.120;-0.200;2022-09-28T10:14:12;99977.97;;;14.94;97.65
35910;BME280;22004;49.120;-0.200;2022-09-28T10:16:40;99967.41;;;15.69;100.00
35910;BME280;22004;49.120;-0.200;2022-09-28T10:19:10;99968.22;;;15.81;100.00
35910;BME280;22004;49.120;-0.200;2022-09-28T10:21:37;99968.03;;;15.40;100.00
35910;BME280;22004;49.120;-0.200;2022-09-28T10:24:10;99966.44;;;15.38;94.01
35910;BME280;22004;49.120;-0.200;2022-09-28T10:26:40;99961.78;;;15.51;100.00
35910;BME280;22004;49.120;-0.200;2022-09-28T10:29:14;99956.88;;;15.89;100.00
35910;BME280;22004;49.120;-0.200;2022-09-28T10:31:45;99956.03;;;15.88;98.29
35910;BME280;22004;49.120;-0.200;2022-09-28T10:34:14;99951.69;;;16.18;95.44
35910;BME280;22004;49.120;-0.200;2022-09-28T10:36:51;99954.94;;;15.58;100.00
35910;BME280;22004;49.120;-0.200;2022-09-28T10:39:36;99955.94;;;15.78;97.58
35910;BME280;22004;49.120;-0.200;2022-09-28T10:42:11;99953.41;;;15.77;95.78
35910;BME280;22004;49.120;-0.200;2022-09-28T10:45:03;99956.59;;;15.38;99.17
35910;BME280;22004;49.120;-0.200;2022-09-28T10:47:42;99957.56;;;15.05;96.22
35910;BME280;22004;49.120;-0.200;2022-09-28T10:50:26;99952.69;;;15.10;93.08
35910;BME280;22004;49.120;-0.200;2022-09-28T10:52:52;99951.25;;;15.06;95.52
35910;BME280;22004;49.120;-0.200;2022-09-28T10:55:30;99952.47;;;15.02;99.59
35910;BME280;22004;49.120;-0.200;2022-09-28T10:57:57;99953.50;;;14.67;100.00
35910;BME280;22004;49.120;-0.200;2022-09-28T11:00:41;99947.25;;;15.11;99.16
35910;BME280;22004;49.120;-0.200;2022-09-28T11:03:19;99947.19;;;14.79;100.00
35910;BME280;22004;49.120;-0.200;2022-09-28T11:06:00;99942.53;;;15.04;100.00
35910;BME280;22004;49.120;-0.200;2022-09-28T11:08:29;99944.63;;;14.77;100.00
35910;BME280;22004;49.120;-0.200;2022-09-28T11:11:10;99936.97;;;14.95;100.00
35910;BME280;22004;49.120;-0.200;2022-09-28T11:13:49;99949.34;;;14.62;97.44
35910;BME280;22004;49.120;-0.200;2022-09-28T11:16:32;99953.47;;;14.55;99.38
35910;BME280;22004;49.120;-0.200;2022-09-28T11:21:43;99940.94;;;15.01;100.00
35910;BME280;22004;49.120;-0.200;2022-09-28T11:24:22;99938.22;;;14.69;100.00
35910;BME280;22004;49.120;-0.200;2022-09-28T11:26:51;99942.94;;;14.54;100.00
35910;BME280;22004;49.120;-0.200;2022-09-28T11:31:45;99931.75;;;14.60;100.00
35910;BME280;22004;49.120;-0.200;2022-09-28T11:34:20;99925.97;;;14.32;100.00
35910;BME280;22004;49.120;-0.200;2022-09-28T11:39:27;99929.38;;;14.68;100.00
35910;BME280;22004;49.120;-0.200;2022-09-28T11:42:26;99922.69;;;14.28;100.00
35910;BME280;22004;49.120;-0.200;2022-09-28T11:47:50;99926.59;;;14.36;99.93
35910;BME280;22004;49.120;-0.200;2022-09-28T11:50:25;99923.53;;;14.74;100.00
35910;BME280;22004;49.120;-0.200;2022-09-28T11:53:01;99911.25;;;14.83;100.00
35910;BME280;22004;49.120;-0.200;2022-09-28T11:55:41;99917.88;;;15.00;100.00
35910;BME280;22004;49.120;-0.200;2022-09-28T12:00:41;99917.63;;;15.36;97.77
35910;BME280;22004;49.120;-0.200;2022-09-28T12:03:22;99927.06;;;14.63;96.35
35910;BME280;22004;49.120;-0.200;2022-09-28T12:05:55;99924.13;;;14.67;98.55
35910;BME280;22004;49.120;-0.200;2022-09-28T12:08:27;99918.78;;;14.55;97.86
35910;BME280;22004;49.120;-0.200;2022-09-28T12:11:02;99918.53;;;14.58;100.00
35910;BME280;22004;49.120;-0.200;2022-09-28T12:13:37;99918.81;;;14.44;98.17
35910;BME280;22004;49.120;-0.200;2022-09-28T12:18:40;99919.16;;;15.17;100.00
35910;BME280;22004;49.120;-0.200;2022-09-28T12:23:43;99905.06;;;15.15;97.72
35910;BME280;22004;49.120;-0.200;2022-09-28T12:26:42;99905.81;;;15.17;95.91
35910;BME280;22004;49.120;-0.200;2022-09-28T12:29:11;99910.69;;;14.68;92.31
35910;BME280;22004;49.120;-0.200;2022-09-28T12:34:34;99921.69;;;14.41;94.00
35910;BME280;22004;49.120;-0.200;2022-09-28T12:45:17;99939.53;;;14.40;100.00
35910;BME280;22004;49.120;-0.200;2022-09-28T12:48:18;99926.56;;;14.24;100.00
35910;BME280;22004;49.120;-0.200;2022-09-28T12:51:05;99920.25;;;14.48;100.00
35910;BME280;22004;49.120;-0.200;2022-09-28T12:56:56;99914.44;;;14.43;100.00
35910;BME280;22004;49.120;-0.200;2022-09-28T12:59:40;99907.03;;;14.69;100.00
35910;BME280;22004;49.120;-0.200;2022-09-28T13:02:19;99901.06;;;14.77;99.42
35910;BME280;22004;49.120;-0.200;2022-09-28T13:10:53;99892.47;;;15.59;98.13
35910;BME280;22004;49.120;-0.200;2022-09-28T13:13:42;99902.06;;;15.62;94.94
35910;BME280;22004;49.120;-0.200;2022-09-28T13:18:55;99893.19;;;15.40;97.30
35910;BME280;22004;49.120;-0.200;2022-09-28T13:24:02;99890.53;;;15.40;95.53
35910;BME280;22004;49.120;-0.200;2022-09-28T13:26:37;99893.69;;;15.13;93.67
35910;BME280;22004;49.120;-0.200;2022-09-28T13:29:13;99883.63;;;15.38;97.14
35910;BME280;22004;49.120;-0.200;2022-09-28T13:31:50;99887.34;;;15.14;95.46
35910;BME280;22004;49.120;-0.200;2022-09-28T13:34:29;99888.63;;;14.98;95.87
35910;BME280;22004;49.120;-0.200;2022-09-28T13:37:19;99890.16;;;15.12;98.02
35910;BME280;22004;49.120;-0.200;2022-09-28T13:50:56;99874.66;;;15.27;95.55
35910;BME280;22004;49.120;-0.200;2022-09-28T13:54:01;99882.44;;;15.73;92.82
35910;BME280;22004;49.120;-0.200;2022-09-28T13:56:43;99876.81;;;15.76;91.95
35910;BME280;22004;49.120;-0.200;2022-09-28T13:59:29;99876.44;;;15.59;95.01
35910;BME280;22004;49.120;-0.200;2022-09-28T14:04:53;99868.09;;;15.74;89.16
35910;BME280;22004;49.120;-0.200;2022-09-28T14:07:25;99881.97;;;15.25;90.90
35910;BME280;22004;49.120;-0.200;2022-09-28T14:10:46;99892.78;;;14.91;96.27
35910;BME280;22004;49.120;-0.200;2022-09-28T14:16:20;99892.47;;;14.62;100.00
35910;BME280;22004;49.120;-0.200;2022-09-28T14:29:39;99900.50;;;14.51;100.00
35910;BME280;22004;49.120;-0.200;2022-09-28T14:37:04;99889.47;;;14.21;100.00
35910;BME280;22004;49.120;-0.200;2022-09-28T14:39:49;99891.38;;;14.42;100.00
35910;BME280;22004;49.120;-0.200;2022-09-28T14:42:33;99890.91;;;14.03;99.71
35910;BME280;22004;49.120;-0.200;2022-09-28T14:47:41;99884.25;;;14.20;100.00
35910;BME280;22004;49.120;-0.200;2022-09-28T14:52:49;99889.94;;;14.38;100.00
35910;BME280;22004;49.120;-0.200;2022-09-28T14:55:19;99889.69;;;14.41;100.00
35910;BME280;22004;49.120;-0.200;2022-09-28T14:57:54;99886.19;;;14.18;98.93
35910;BME280;22004;49.120;-0.200;2022-09-28T15:00:21;99881.44;;;14.32;100.00
35910;BME280;22004;49.120;-0.200;2022-09-28T15:02:50;99883.63;;;14.39;99.34
35910;BME280;22004;49.120;-0.200;2022-09-28T15:05:19;99892.38;;;14.29;99.69
35910;BME280;22004;49.120;-0.200;2022-09-28T15:07:50;99893.59;;;14.14;99.99
35910;BME280;22004;49.120;-0.200;2022-09-28T15:12:52;99904.84;;;14.40;100.00
35910;BME280;22004;49.120;-0.200;2022-09-28T15:15:35;99892.72;;;14.13;96.79